createdAt,value
2019-02-11T00:02:14.630Z,7.5
2019-02-11T00:07:20.495Z,7.4
2019-02-11T00:12:25.841Z,7.5
2019-02-11T00:17:31.178Z,6.3
2019-02-11T00:22:36.751Z,6.3
2019-02-11T00:27:41.826Z,5.1
2019-02-11T00:32:47.514Z,5.5
2019-02-11T00:37:53.365Z,5.2
2019-02-11T00:42:58.563Z,6.2
2019-02-11T00:48:04.554Z,5.7
2019-02-11T00:53:12.451Z,4.9
2019-02-11T00:58:16.885Z,5.7
2019-02-11T01:03:22.554Z,4.8
2019-02-11T01:08:27.796Z,4.1
2019-02-11T01:13:33.296Z,5.4
2019-02-11T01:18:37.631Z,4.7
2019-02-11T01:23:42.732Z,4.7
2019-02-11T01:28:47.974Z,4.3
2019-02-11T01:33:53.537Z,4.2
2019-02-11T01:38:59.291Z,4.1
2019-02-11T01:44:04.347Z,5.5
2019-02-11T01:49:09.582Z,4.4
2019-02-11T01:54:15.430Z,3.6
2019-02-11T01:59:21.135Z,4.5
2019-02-11T02:04:26.672Z,4.2
2019-02-11T02:09:31.737Z,5.1
2019-02-11T02:14:37.051Z,5.3
2019-02-11T02:19:43.501Z,7.2
2019-02-11T02:24:49.021Z,3.8
2019-02-11T02:29:54.055Z,5
2019-02-11T02:34:58.997Z,5.7
2019-02-11T02:40:04.240Z,4.6
2019-02-11T02:45:09.411Z,3.2
2019-02-11T02:50:14.596Z,3.4
2019-02-11T02:55:19.773Z,3.2
2019-02-11T03:00:25.128Z,3.1
2019-02-11T03:05:30.669Z,2.8
2019-02-11T03:10:36.965Z,2.8
2019-02-11T03:15:42.067Z,3
2019-02-11T03:20:48.007Z,2.9
2019-02-11T03:25:53.194Z,2.8
2019-02-11T03:30:58.341Z,2.7
2019-02-11T03:36:03.909Z,2.9
2019-02-11T03:41:09.237Z,2.8
2019-02-11T03:46:14.310Z,2.5
2019-02-11T03:51:20.033Z,2.2
2019-02-11T03:56:25.118Z,2.4
2019-02-11T04:01:31.364Z,2.5
2019-02-11T04:06:37.215Z,4
2019-02-11T04:11:43.390Z,2.7
2019-02-11T04:16:49.212Z,2.1
2019-02-11T04:21:55.244Z,2.2
2019-02-11T04:27:00.913Z,2.6
2019-02-11T04:32:06.937Z,2.1
2019-02-11T04:37:12.101Z,2.3
2019-02-11T04:42:17.188Z,2.4
2019-02-11T04:47:22.552Z,2
2019-02-11T04:52:26.599Z,2.1
2019-02-11T04:57:31.695Z,1.9
2019-02-11T05:02:37.620Z,2.4
2019-02-11T05:07:43.479Z,1.4
2019-02-11T05:12:48.785Z,2.3
2019-02-11T05:17:54.420Z,1.8
2019-02-11T05:22:59.851Z,1.4
2019-02-11T05:28:05.707Z,1.4
2019-02-11T05:33:11.641Z,1.7
2019-02-11T05:39:23.140Z,5.2
2019-02-11T05:44:29.213Z,3.8
2019-02-11T05:49:34.193Z,3.9
2019-02-11T05:54:39.295Z,6.2
2019-02-11T05:59:44.369Z,7.7
2019-02-11T06:04:49.536Z,5.4
2019-02-11T06:09:54.509Z,7.3
2019-02-11T06:15:04.137Z,8.4
2019-02-11T06:20:09.818Z,6.5
2019-02-11T06:25:14.985Z,6.6
2019-02-11T06:30:20.966Z,7.4
2019-02-11T06:35:26.018Z,4.2
2019-02-11T06:40:32.044Z,4.4
2019-02-11T06:45:37.230Z,4.4
2019-02-11T06:50:43.089Z,3.6
2019-02-11T06:55:48.156Z,4.5
2019-02-11T07:00:53.345Z,7.4
2019-02-11T07:05:58.363Z,5.8
2019-02-11T07:11:03.333Z,6.2
2019-02-11T07:16:09.244Z,8.5
2019-02-11T07:21:14.682Z,6
2019-02-11T07:26:19.843Z,5.3
2019-02-11T07:31:25.792Z,13.2
2019-02-11T07:36:31.243Z,10.5
2019-02-11T07:41:37.004Z,7.1
2019-02-11T07:46:42.919Z,10.7
2019-02-11T07:51:48.068Z,7.4
2019-02-11T07:56:53.967Z,8.1
2019-02-11T08:01:59.097Z,6.7
2019-02-11T08:07:02.755Z,4.4
2019-02-11T08:12:08.195Z,8.2
2019-02-11T08:17:13.319Z,5.4
2019-02-11T08:22:18.936Z,14
2019-02-11T08:27:23.675Z,9.1
2019-02-11T08:32:29.234Z,11.4
2019-02-11T08:37:34.349Z,12.1
2019-02-11T08:42:39.784Z,13.3
2019-02-11T08:47:44.797Z,9
2019-02-11T08:52:50.542Z,12.3
2019-02-11T08:57:56.135Z,11
2019-02-11T09:03:00.550Z,14.6
2019-02-11T09:08:05.834Z,11.3
2019-02-11T09:13:11.017Z,14.4
2019-02-11T09:18:16.276Z,18.3
2019-02-11T09:23:24.417Z,15.9
2019-02-11T09:28:30.834Z,17.3
2019-02-11T09:33:36.495Z,13.8
2019-02-11T09:38:41.834Z,12.8
2019-02-11T09:43:46.796Z,15.8
2019-02-11T09:48:51.869Z,13.5
2019-02-11T09:53:56.901Z,12.8
2019-02-11T09:59:01.524Z,15.9
2019-02-11T10:04:06.493Z,13.3
2019-02-11T10:09:11.818Z,12.2
2019-02-11T10:14:17.614Z,12.1
2019-02-11T10:19:23.270Z,13.6
2019-02-11T10:24:28.924Z,12.1
2019-02-11T10:29:34.811Z,10.8
2019-02-11T10:34:40.648Z,12.3
2019-02-11T10:39:45.642Z,10.9
2019-02-11T10:44:51.264Z,9.9
2019-02-11T10:49:57.297Z,7.9
2019-02-11T10:55:02.472Z,12.5
2019-02-11T11:00:07.893Z,14.1
2019-02-11T11:05:13.926Z,10.9
2019-02-11T11:10:19.399Z,9.3
2019-02-11T11:15:25.317Z,10.8
2019-02-11T11:20:32.069Z,8.4
2019-02-11T11:25:37.069Z,10
2019-02-11T11:30:42.792Z,7.2
2019-02-11T11:35:48.950Z,8.7
2019-02-11T11:40:54.085Z,9.3
2019-02-11T11:45:58.817Z,8
2019-02-11T11:51:04.378Z,8.8
2019-02-11T11:56:08.076Z,8.5
2019-02-11T12:01:18.839Z,6.3
2019-02-11T12:06:14.881Z,8.8
2019-02-11T12:11:20.115Z,8.9
2019-02-11T12:16:25.976Z,5.8
2019-02-11T12:21:31.719Z,5.2
2019-02-11T12:26:37.231Z,9.3
2019-02-11T12:31:42.359Z,7.7
2019-02-11T12:36:48.607Z,5.9
2019-02-11T12:41:54.407Z,5.3
2019-02-11T12:47:13.030Z,5.2
2019-02-11T12:52:08.352Z,8.2
2019-02-11T12:57:13.987Z,4.6
2019-02-11T13:02:20.033Z,6.7
2019-02-11T13:07:25.781Z,5.2
2019-02-11T13:12:31.785Z,4.9
2019-02-11T13:17:37.977Z,11.3
2019-02-11T13:22:44.201Z,28.4
2019-02-11T13:27:49.687Z,33
2019-02-11T13:32:55.705Z,32.6
2019-02-11T13:38:01.552Z,34.2
2019-02-11T13:43:06.809Z,30.2
2019-02-11T13:48:12.392Z,28.5
2019-02-11T13:53:18.487Z,25.5
2019-02-11T13:58:23.636Z,29.8
2019-02-11T14:03:29.393Z,29.4
2019-02-11T14:08:34.976Z,27.7
2019-02-11T14:13:40.995Z,22.1
2019-02-11T14:18:46.762Z,17.4
2019-02-11T14:23:52.415Z,18.7
2019-02-11T14:28:58.655Z,13.6
2019-02-11T14:34:03.927Z,14.5
2019-02-11T14:39:04.099Z,12.9
2019-02-11T14:44:13.030Z,13.4
2019-02-11T14:49:18.861Z,9.6
2019-02-11T14:54:24.184Z,10.5
2019-02-11T14:59:29.707Z,8.5
2019-02-11T15:04:34.787Z,8.8
2019-02-11T15:09:39.901Z,8.5
2019-02-11T15:14:45.487Z,7.4
2019-02-11T15:19:50.909Z,7.5
2019-02-11T15:24:56.004Z,7.2
2019-02-11T15:30:01.509Z,7.2
2019-02-11T15:35:08.347Z,8.8
2019-02-11T15:40:13.913Z,9.5
2019-02-11T15:45:19.788Z,9.8
2019-02-11T15:50:24.061Z,11.2
2019-02-11T15:55:28.448Z,10.6
2019-02-11T16:00:29.113Z,12.5
2019-02-11T16:05:34.841Z,7.1
2019-02-11T16:10:40.277Z,10.7
2019-02-11T16:15:45.542Z,11.6
2019-02-11T16:20:50.518Z,13.8
2019-02-11T16:25:55.586Z,7
2019-02-11T16:31:01.548Z,11.2
2019-02-11T16:36:07.483Z,7.3
2019-02-11T16:41:12.966Z,5.9
2019-02-11T16:46:18.154Z,6.8
2019-02-11T16:51:24.998Z,6.7
2019-02-11T16:56:29.058Z,7.5
2019-02-11T17:01:34.354Z,7.4
2019-02-11T17:06:40.140Z,8
2019-02-11T17:11:45.158Z,7.8
2019-02-11T17:16:51.136Z,5.6
2019-02-11T17:21:56.297Z,6.5
2019-02-11T17:27:02.154Z,6.9
2019-02-11T17:32:08.143Z,7.7
2019-02-11T17:37:14.403Z,7.1
2019-02-11T17:42:20.137Z,5.4
2019-02-11T17:47:25.374Z,12.8
2019-02-11T17:52:30.403Z,80.5
2019-02-11T17:57:35.501Z,241.9
2019-02-11T18:02:41.441Z,245
2019-02-11T18:07:47.355Z,206.2
2019-02-11T18:12:52.304Z,200.2
2019-02-11T18:18:00.992Z,179.9
2019-02-11T18:23:06.392Z,157.7
2019-02-11T18:28:12.343Z,153.5
2019-02-11T18:33:16.906Z,143.4
2019-02-11T18:38:22.272Z,140
2019-02-11T18:43:26.046Z,130.1
2019-02-11T18:48:31.947Z,114.2
2019-02-11T18:53:37.587Z,113.6
2019-02-11T18:58:42.831Z,7.2
2019-02-11T19:03:48.692Z,6.9
2019-02-11T19:08:53.779Z,5.2
2019-02-11T19:13:58.906Z,6.4
2019-02-11T19:19:05.304Z,7.1
2019-02-11T19:24:10.464Z,6.7
2019-02-11T19:29:16.735Z,6.1
2019-02-11T19:34:21.786Z,7
2019-02-11T19:39:27.944Z,5.9
2019-02-11T19:44:33.306Z,18.7
2019-02-11T19:49:38.483Z,7.9
2019-02-11T19:54:44.298Z,6.1
2019-02-11T19:59:48.238Z,6
2019-02-11T20:04:54.069Z,5.4
2019-02-11T20:10:00.009Z,8.6
2019-02-11T20:15:05.249Z,4.4
2019-02-11T20:20:10.735Z,4.4
2019-02-11T20:25:16.617Z,3.4
2019-02-11T20:30:21.607Z,4
2019-02-11T20:35:29.304Z,3.7
2019-02-11T20:40:34.489Z,5.8
2019-02-11T20:45:40.015Z,4.1
2019-02-11T20:50:45.838Z,3.3
2019-02-11T20:55:51.671Z,2.6
2019-02-11T21:00:57.005Z,3.6
2019-02-11T21:06:02.672Z,3.8
2019-02-11T21:11:06.453Z,4.1
2019-02-11T21:16:11.665Z,2.5
2019-02-11T21:21:17.350Z,2
2019-02-11T21:26:23.044Z,2.6
2019-02-11T21:31:28.501Z,2.4
2019-02-11T21:36:32.143Z,1.5
2019-02-11T21:41:37.801Z,3.5
2019-02-11T21:46:43.375Z,6.4
2019-02-11T21:51:48.547Z,7.6
2019-02-11T21:56:53.926Z,4.6
2019-02-11T22:01:59.487Z,7.2
2019-02-11T22:07:05.140Z,8.3
2019-02-11T22:12:11.136Z,8.5
2019-02-11T22:17:16.031Z,7.3
2019-02-11T22:22:21.892Z,7.3
2019-02-11T22:27:27.883Z,7.3
2019-02-11T22:32:33.923Z,6
2019-02-11T22:37:40.081Z,5.1
2019-02-11T22:42:46.060Z,6.4
2019-02-11T22:47:49.744Z,6.6
2019-02-11T22:52:55.530Z,4.6
2019-02-11T22:58:01.266Z,3.6
2019-02-11T23:03:07.112Z,4.2
2019-02-11T23:08:13.164Z,4.6
2019-02-11T23:13:18.293Z,3.3
2019-02-11T23:18:24.186Z,4.2
2019-02-11T23:23:30.063Z,4.7
2019-02-11T23:28:35.687Z,4
2019-02-11T23:33:41.729Z,4.2
2019-02-11T23:38:46.790Z,3.9
2019-02-11T23:43:52.765Z,2.7
2019-02-11T23:48:58.061Z,2.4
2019-02-11T23:54:04.423Z,3.4
2019-02-11T23:59:09.942Z,2.2
